• Join FlightAware (Why Join?)
  • Login
  • US Flag 
07:56PM EDT


 

Airport Tracker/Info


-or-


 

Live Flight TrackerFlight Track Log ✈ N679EA ✈ 17-Jul-2013 ✈ KCGF - KHYR

Flight Track Log - Related Links

Times and Time Zones

All times are in EDT time to prevent confusion due to time zone crossing. See the N679EA flight status page for this flight to view local times or setup timezone preferences in your user account.

Time Position Orientation Groundspeed Altitude Reporting Facility
EDT Latitude Longitude Course Direction KTS MPH feet Rate Location/Type
12:06PM 41.5667 -81.4850 238° Southwest 64 74 900  Level Cleveland Center
12:07PM 41.5561 -81.5072 238° Southwest 91 105 1,400 660 Climbing Cleveland Center
12:08PM 41.5767 -81.5325 317° Northwest 108 124 2,100 600 Climbing Cleveland Center
12:09PM 41.5994 -81.5522 327° Northwest 111 128 2,700 540 Climbing Cleveland Center
12:10PM 41.6303 -81.5917 316° Northwest 119 137 3,500 600 Climbing Cleveland Center
12:11PM 41.6531 -81.6169 320° Northwest 119 137 4,200 600 Climbing Cleveland Center
12:12PM 41.6819 -81.6453 324° Northwest 119 137 4,800 600 Climbing Cleveland Center
12:13PM 41.7067 -81.6706 323° Northwest 119 137 5,400 540 Climbing Cleveland Center
12:14PM 41.7336 -81.6989 322° Northwest 119 137 5,900 300 Climbing Cleveland Center
12:15PM 41.7625 -81.7272 324° Northwest 125 144 6,100 300 Climbing Cleveland Center
12:16PM 41.7956 -81.7611 323° Northwest 134 154 6,600 480 Climbing Cleveland Center
12:17PM 41.8264 -81.7925 323° Northwest 134 154 7,100 420 Climbing Cleveland Center
12:18PM 41.8553 -81.8236 321° Northwest 134 154 7,500 480 Climbing Cleveland Center
12:19PM 41.8842 -81.8550 321° Northwest 134 154 8,100 480 Climbing Cleveland Center
12:20PM 41.9044 -81.8972 303° West 134 154 8,500 420 Climbing Cleveland Center
12:21PM 41.9250 -81.9367 305° West 134 154 9,000 480 Climbing Cleveland Center
12:22PM 41.9472 -81.9792 305° West 134 154 9,500 480 Climbing Cleveland Center
12:23PM 41.9675 -82.0214 303° West 139 160 10,000 480 Climbing Cleveland Center
12:24PM 41.9900 -82.0639 305° West 139 160 10,500 420 Climbing Cleveland Center
12:25PM 42.0083 -82.1033 302° West 139 160 10,900 420 Climbing Cleveland Center
12:26PM 42.0325 -82.1514 304° West 139 160 11,400 480 Climbing Cleveland Center
12:27PM 42.0528 -82.1911 305° West 139 160 11,900 480 Climbing Cleveland Center
12:28PM 42.0772 -82.2308 310° West 139 160 12,400 480 Climbing Cleveland Center
12:29PM 42.1039 -82.2681 314° West 139 160 12,900 480 Climbing Cleveland Center
12:30PM 42.1283 -82.3078 310° West 144 166 13,400 480 Climbing Cleveland Center
12:31PM 42.1444 -82.3475 299° West 134 154 13,900 480 Climbing Cleveland Center
12:32PM 42.1647 -82.3872 305° West 123 142 14,400 480 Climbing Cleveland Center
12:33PM 42.1828 -82.4297 300° West 123 142 14,900 480 Climbing Cleveland Center
12:34PM 42.2031 -82.4667 307° West 123 142 15,400 480 Climbing Cleveland Center
12:35PM 42.2253 -82.5094 305° West 128 147 15,900 300 Climbing Cleveland Center
12:36PM 42.2472 -82.5550 303° West 128 147 16,100  Climbing Cleveland Center
12:37PM 42.2694 -82.6006 303° West 139 160 16,000 -60 Descending Cleveland Center
12:38PM 42.2917 -82.6464 303° West 139 160 16,000  Level Cleveland Center
12:39PM 42.3117 -82.6892 302° West 139 160 16,000  Level Cleveland Center
12:40PM 42.3317 -82.7319 302° West 139 160 16,000  Level Cleveland Center
12:41PM 42.3539 -82.7747 305° West 139 160 16,000  Level Cleveland Center
12:42PM 42.3758 -82.8178 305° West 139 160 16,000  Level Cleveland Center
12:43PM 42.3981 -82.8606 305° West 139 160 16,000  Level Cleveland Center
12:44PM 42.4181 -82.9036 302° West 139 160 16,000  Level Cleveland Center
12:45PM 42.4400 -82.9494 303° West 139 160 16,000  Level Cleveland Center
12:46PM 42.4600 -82.9953 301° West 145 167 16,000  Level Cleveland Center
12:47PM 42.4819 -83.0383 305° West 145 167 16,000  Level Cleveland Center
12:48PM 42.5039 -83.0814 305° West 145 167 16,000  Level Cleveland Center
12:49PM 42.5258 -83.1272 303° West 145 167 16,000  Level Cleveland Center
12:50PM 42.5478 -83.1706 305° West 145 167 16,000  Level Cleveland Center
12:51PM 42.5675 -83.2164 300° West 145 167 16,000  Level Cleveland Center
12:52PM 42.5894 -83.2597 305° West 145 167 16,000  Level Cleveland Center
12:53PM 42.6114 -83.3056 303° West 145 167 16,000  Level Cleveland Center
12:54PM 42.6311 -83.3489 302° West 145 167 16,000  Level Cleveland Center
12:55PM 42.6553 -83.3922 307° West 145 167 16,000  Level Cleveland Center
12:56PM 42.6664 -83.4408 287° West 145 167 16,000  Level Cleveland Center
12:57PM 42.6736 -83.4947 280° West 145 167 16,000  Level Cleveland Center
12:58PM 42.6806 -83.5461 280° West 145 167 16,000  Level Cleveland Center
12:59PM 42.6897 -83.5972 284° West 145 167 16,000  Level Cleveland Center
01:00PM 42.6986 -83.6514 283° West 145 167 16,000  Level Cleveland Center
01:01PM 42.7078 -83.7028 284° West 145 167 16,000  Level Cleveland Center
01:02PM 42.7144 -83.7567 280° West 145 167 16,000  Level Cleveland Center
01:03PM 42.7361 -83.8031 302° West 145 167 16,000  Level Cleveland Center
01:04PM 42.7600 -83.8467 307° West 145 167 16,000  Level Cleveland Center
01:05PM 42.7794 -83.8931 300° West 145 167 16,000  Level Cleveland Center
01:06PM 42.8011 -83.9367 304° West 145 167 16,000  Level Cleveland Center
01:07PM 42.8228 -83.9803 304° West 145 167 16,000  Level Cleveland Center
01:08PM 42.8464 -84.0269 305° West 150 173 16,000  Level Cleveland Center
01:09PM 42.8658 -84.0706 301° West 150 173 16,000  Level Cleveland Center
01:10PM 42.8897 -84.1142 307° West 150 173 16,000  Level Cleveland Center
01:11PM 42.9031 -84.1397 305° West 139 160 16,000  Level Chicago Center
01:12PM 42.9242 -84.1836 303° West 140 161 16,000  Level Chicago Center
01:13PM 42.9464 -84.2292 304° West 142 163 16,000  Level Chicago Center
01:14PM 42.9672 -84.2728 303° West 139 160 16,000  Level Chicago Center
01:15PM 42.9889 -84.3172 304° West 138 159 16,000  Level Chicago Center
01:16PM 43.0139 -84.3694 303° West 139 160 16,000  Level Chicago Center
01:17PM 43.0350 -84.4139 303° West 140 161 16,000  Level Chicago Center
01:18PM 43.0569 -84.4594 303° West 144 166 16,000  Level Chicago Center
01:19PM 43.0786 -84.5050 303° West 141 162 16,000  Level Chicago Center
01:20PM 43.0997 -84.5492 303° West 143 165 16,000  Level Chicago Center
01:21PM 43.1222 -84.5958 303° West 146 168 16,000  Level Chicago Center
01:22PM 43.1478 -84.6503 303° West 141 162 16,000  Level Chicago Center
01:23PM 43.1692 -84.6950 303° West 141 162 16,000  Level Chicago Center
01:24PM 43.1908 -84.7406 303° West 142 163 16,000  Level Chicago Center
01:25PM 43.2122 -84.7858 303° West 142 163 16,000  Level Chicago Center
01:26PM 43.2336 -84.8308 303° West 141 162 16,000  Level Chicago Center
01:27PM 43.2589 -84.8847 303° West 138 159 16,000  Level Chicago Center
01:28PM 43.2797 -84.9289 303° West 140 161 16,000  Level Chicago Center
01:29PM 43.3014 -84.9747 303° West 142 163 16,000  Level Chicago Center
01:30PM 43.3242 -85.0233 303° West 144 166 16,000  Level Chicago Center
01:31PM 43.3456 -85.0689 303° West 141 162 16,000  Level Chicago Center
01:32PM 43.3669 -85.1147 303° West 142 163 16,000  Level Chicago Center
01:33PM 43.3881 -85.1597 303° West 143 165 16,000  Level Chicago Center
01:34PM 43.4097 -85.2064 303° West 140 161 16,000  Level Chicago Center
01:36PM 43.4344 -85.2594 303° West 142 163 16,000  Level Chicago Center
01:37PM 43.4561 -85.3058 303° West 142 163 16,000  Level Chicago Center
01:38PM 43.4769 -85.3506 303° West 138 159 16,000 -60 Level Chicago Center
01:38PM 43.4922 -85.3844 302° West 136 157 15,900 -60 Descending Minneapolis Center
01:39PM 43.5147 -85.4319 303° West 143 165 15,900  Level Minneapolis Center
01:40PM 43.5372 -85.4792 303° West 147 169 16,000  Climbing Minneapolis Center
01:41PM 43.5578 -85.5264 301° West 146 168 16,000  Level Minneapolis Center
01:42PM 43.5786 -85.5711 303° West 140 161 16,000  Level Minneapolis Center
01:44PM 43.5992 -85.6158 302° West 139 160 16,000  Level Minneapolis Center
01:45PM 43.6244 -85.6714 302° West 141 162 16,000  Level Minneapolis Center
01:46PM 43.6461 -85.7164 304° West 140 161 16,000  Level Minneapolis Center
01:47PM 43.6675 -85.7631 302° West 143 165 16,000  Level Minneapolis Center
01:48PM 43.6875 -85.8092 301° West 142 163 16,000  Level Minneapolis Center
01:49PM 43.7094 -85.8553 303° West 142 163 16,000 60 Level Minneapolis Center
01:50PM 43.7286 -85.8992 301° West 136 157 16,200 240 Climbing Minneapolis Center
01:51PM 43.7517 -85.9486 303° West 130 150 16,500 240 Climbing Minneapolis Center
01:52PM 43.7706 -85.9903 302° West 128 147 16,800 240 Climbing Minneapolis Center
01:53PM 43.7894 -86.0325 302° West 128 147 17,000 240 Climbing Minneapolis Center
01:54PM 43.8081 -86.0750 301° West 129 148 17,300 240 Climbing Minneapolis Center
01:55PM 43.8269 -86.1161 303° West 127 146 17,500 240 Climbing Minneapolis Center
01:56PM 43.8464 -86.1589 302° West 130 150 17,800 60 Climbing Minneapolis Center
01:57PM 43.8686 -86.2086 302° West 128 147 17,700  Descending Minneapolis Center
01:58PM 43.8878 -86.2508 302° West 129 148 17,900 120 Climbing Minneapolis Center
01:59PM 43.9083 -86.2969 302° West 136 157 18,000  Climbing Minneapolis Center
02:00PM 43.9300 -86.3436 303° West 140 161 18,000  Level Minneapolis Center
02:01PM 43.9514 -86.3925 301° West 145 167 18,000  Level Minneapolis Center
02:02PM 43.9728 -86.4394 302° West 146 168 18,000  Level Minneapolis Center
02:03PM 43.9986 -86.4983 301° West 148 170 18,000  Level Minneapolis Center
02:04PM 44.0197 -86.5461 302° West 146 168 18,000  Level Minneapolis Center
02:05PM 44.0411 -86.5928 303° West 145 167 18,000  Level Minneapolis Center
02:07PM 44.0677 -86.6530 302° West  Level FlightAware Approximate
02:08PM 44.1053 -86.7386 302° West 146 168 18,000  Level Minneapolis Center
02:09PM 44.1311 -86.7956 302° West 146 168 18,000  Level Minneapolis Center
02:10PM 44.1519 -86.8439 301° West 146 168 18,000  Level Minneapolis Center
02:11PM 44.1733 -86.8933 301° West 148 170 18,000  Level Minneapolis Center
02:12PM 44.1942 -86.9389 303° West 142 163 18,000  Level Minneapolis Center
02:14PM 44.2122 -86.9822 302° West  Level FlightAware Approximate
02:14PM 44.2150 -86.9872 301° West 144 166 18,000  Level Minneapolis Center
02:15PM 44.2350 -87.0333 301° West 142 163 18,200 240 Climbing Minneapolis Center
02:16PM 44.2583 -87.0856 302° West 134 154 18,500 240 Climbing Minneapolis Center
02:17PM 44.2775 -87.1281 302° West 130 150 18,800 240 Climbing Minneapolis Center
02:18PM 44.2983 -87.1697 305° West 126 145 19,000 240 Climbing Minneapolis Center
02:19PM 44.3206 -87.2142 305° West 128 147 19,400 240 Climbing Minneapolis Center
02:20PM 44.3411 -87.2567 304° West 135 155 19,600 120 Climbing Minneapolis Center
02:21PM 44.3631 -87.3008 305° West 137 158 19,800 180 Climbing Minneapolis Center
02:22PM 44.3853 -87.3636 296° West 132 152 20,100 120 Climbing Minneapolis Center
02:23PM 44.3994 -87.4119 292° West 138 159 20,100  Level Minneapolis Center
02:24PM 44.4142 -87.4639 292° West 145 167 20,100 -60 Level Minneapolis Center
02:25PM 44.4286 -87.5164 291° West 142 163 20,000  Descending Minneapolis Center
02:26PM 44.4428 -87.5661 292° West 138 159 20,100  Climbing Minneapolis Center
02:27PM 44.4600 -87.6253 292° West 139 160 20,000 -60 Descending Minneapolis Center
02:28PM 44.4747 -87.6758 292° West 142 163 20,000  Level Minneapolis Center
02:29PM 44.4892 -87.7272 292° West 142 163 20,000  Level Minneapolis Center
02:30PM 44.5011 -87.7908 285° West 141 162 20,000  Level Minneapolis Center
02:32PM 44.5111 -87.8439 285° West 141 162 20,000  Level Minneapolis Center
02:33PM 44.5208 -87.8972 284° West 142 163 20,000  Level Minneapolis Center
02:34PM 44.5325 -87.9583 285° West 141 162 20,000  Level Minneapolis Center
02:35PM 44.5422 -88.0103 285° West 138 159 20,000  Level Minneapolis Center
02:36PM 44.5528 -88.0633 286° West 142 163 20,000  Level Minneapolis Center
02:37PM 44.5642 -88.1244 285° West 137 158 20,000  Level Minneapolis Center
02:38PM 44.5744 -88.1753 286° West 135 155 20,000  Level Minneapolis Center
02:39PM 44.5853 -88.2261 287° West 136 157 20,000  Level Minneapolis Center
02:40PM 44.5983 -88.2761 290° West 137 158 20,000  Level Minneapolis Center
02:41PM 44.6167 -88.3239 298° West 140 161 20,000  Level Minneapolis Center
02:42PM 44.6378 -88.3825 297° West 145 167 20,000  Level Minneapolis Center
02:43PM 44.6572 -88.4286 301° West 134 154 20,000  Level Minneapolis Center
02:44PM 44.6772 -88.4731 302° West 138 159 20,000 -60 Level Minneapolis Center
02:45PM 44.6992 -88.5208 303° West 148 170 19,900 -240 Descending Minneapolis Center
02:46PM 44.7225 -88.5692 304° West 148 170 19,600 -300 Descending Minneapolis Center
02:47PM 44.7456 -88.6178 304° West 152 175 19,300 -420 Descending Minneapolis Center
02:48PM 44.7731 -88.6781 303° West 156 180 18,800 -480 Descending Minneapolis Center
02:49PM 44.7978 -88.7306 304° West 160 184 18,300 -480 Descending Minneapolis Center
02:50PM 44.8233 -88.7833 304° West 163 188 17,900 -300 Descending Minneapolis Center
02:51PM 44.8486 -88.8372 304° West 165 190 17,800 -300 Descending Minneapolis Center
02:52PM 44.8747 -88.8919 304° West 166 191 17,300 -540 Descending Minneapolis Center
02:53PM 44.9044 -88.9547 304° West 166 191 16,800 -480 Descending Minneapolis Center
02:54PM 44.9292 -89.0072 304° West 161 185 16,400 -480 Descending Minneapolis Center
02:55PM 44.9528 -89.0603 302° West 160 184 15,900 -480 Descending Minneapolis Center
02:56PM 44.9786 -89.1117 305° West 160 184 15,500 -420 Descending Minneapolis Center
02:57PM 45.0025 -89.1633 303° West 159 183 15,100 -360 Descending Minneapolis Center
02:58PM 45.0292 -89.2228 302° West 153 176 14,800 -300 Descending Minneapolis Center
02:59PM 45.0522 -89.2714 304° West 150 173 14,500 -240 Descending Minneapolis Center
03:01PM 45.0756 -89.3222 303° West 149 171 14,400 -60 Descending Minneapolis Center
03:02PM 45.0964 -89.3672 303° West 139 160 14,400  Level Minneapolis Center
03:03PM 45.1181 -89.4133 304° West 139 160 14,400  Level Minneapolis Center
03:04PM 45.1394 -89.4592 303° West 140 161 14,400  Level Minneapolis Center
03:05PM 45.1633 -89.5136 302° West 137 158 14,400  Level Minneapolis Center
03:06PM 45.1844 -89.5586 304° West 137 158 14,400  Level Minneapolis Center
03:07PM 45.2053 -89.6036 303° West 136 157 14,400  Level Minneapolis Center
03:08PM 45.2253 -89.6469 303° West 133 153 14,400 -60 Level Minneapolis Center
03:09PM 45.2461 -89.6942 302° West 139 160 14,300 -60 Descending Minneapolis Center
03:10PM 45.2675 -89.7389 304° West 138 159 14,300 -120 Level Minneapolis Center
03:11PM 45.2925 -89.7953 302° West 140 161 14,100 -240 Descending Minneapolis Center
03:12PM 45.3156 -89.8439 304° West 145 167 13,900 -180 Descending Minneapolis Center
03:13PM 45.3375 -89.8928 303° West 146 168 13,800 -180 Descending Minneapolis Center
03:14PM 45.3597 -89.9414 303° West 146 168 13,600 -120 Descending Minneapolis Center
03:15PM 45.3811 -89.9883 303° West 142 163 13,600 -240 Level Minneapolis Center
03:16PM 45.4036 -90.0386 303° West 148 170 13,200 -420 Descending Minneapolis Center
03:17PM 45.4269 -90.0903 303° West 154 177 12,800 -480 Descending Minneapolis Center
03:18PM 45.4564 -90.1517 304° West 155 178 12,300 -480 Descending Minneapolis Center
03:19PM 45.4817 -90.2006 306° West 153 176 11,900 -480 Descending Minneapolis Center
03:20PM 45.5072 -90.2503 306° West 155 178 11,400 -540 Descending Minneapolis Center
03:21PM 45.5367 -90.2981 311° West 159 183 10,900 -480 Descending Minneapolis Center
03:22PM 45.5833 -90.3053 354° North 174 200 10,500 -540 Descending Minneapolis Center
03:23PM 45.5978 -90.3592 291° West 163 188 9,800 -840 Descending Minneapolis Center
03:24PM 45.6122 -90.4292 286° West 155 178 8,800 -960 Descending Minneapolis Center
03:25PM 45.6250 -90.4875 287° West 154 177 7,900 -900 Descending Minneapolis Center
03:26PM 45.6414 -90.5436 293° West 153 176 7,000 -840 Descending Minneapolis Center
03:27PM 45.6547 -90.5911 292° West 155 178 6,200 -780 Descending Minneapolis Center
03:28PM 45.6931 -90.6389 319° Northwest 160 184 5,500 -540 Descending Minneapolis Center
03:29PM 45.7281 -90.6703 328° Northwest 154 177 5,200 -300 Descending Minneapolis Center
03:31PM 45.7561 -90.7128 313° West 151 174 4,900 -300 Descending Minneapolis Center
03:32PM 45.7651 -90.7709 300° West  Level FlightAware Approximate
03:39PM 45.9031 -91.1159 300° West  Level FlightAware Approximate
03:40PM 45.9225 -91.1656 298° West  Level FlightAware Approximate
03:41PM 45.9414 -91.2156 298° West  Level FlightAware Approximate
03:42PM 45.9602 -91.2658 298° West  Level FlightAware Approximate
03:43PM 45.9790 -91.3159 298° West  Level FlightAware Approximate
03:44PM 45.9978 -91.3661 298° West  Level FlightAware Approximate
03:45PM 46.0165 -91.4163 298° West  Level FlightAware Approximate
03:46PM 46.0167 -91.4333 270° West  Level FlightAware Approximate
03:47PM 46.0253 -91.4443 270° West  Level Estimated
03:48PM 46.0253 -91.4443 270° West  Level Estimated
03:49PM 46.0253 -91.4443 270° West  Level Estimated
03:50PM 46.0253 -91.4443 270° West  Level Estimated
03:51PM 46.0253 -91.4443 270° West  Level Estimated